Time;durP1;ratioP1;P1;durP2;ratioP2;P2;SDS_P1;SDS_P2;PMS_P1;PMS_P2;Temp;Humidity;BMP_temperature;BMP_pressure;BME280_temperature;BME280_humidity;BME280_pressure;Samples;Min_cycle;Max_cycle;Signal;HPM_P1;HPM_P2
2023/03/07 00:01:47;;;;;;;42.72;24.55;;;;;;;;;;5052796;28;20575;-67
2023/03/07 00:04:16;;;;;;;35.97;21.25;;;;;;;;;;5052319;28;20239;-67
2023/03/07 00:06:43;;;;;;;47.15;26.60;;;;;;;;;;5052524;28;20275;-67
2023/03/07 00:09:10;;;;;;;41.10;23.48;;;;;;;;;;5052621;28;20188;-67
2023/03/07 00:11:37;;;;;;;44.70;25.50;;;;;;;;;;5052081;28;20210;-67
2023/03/07 00:14:07;;;;;;;42.65;26.73;;;;;;;;;;5052143;28;20205;-67
2023/03/07 00:16:34;;;;;;;50.65;29.17;;;;;;;;;;5052192;28;20187;-67
2023/03/07 00:19:01;;;;;;;49.22;25.20;;;;;;;;;;5052545;28;20190;-67
2023/03/07 00:21:31;;;;;;;46.88;25.42;;;;;;;;;;5052495;28;20263;-67
2023/03/07 00:23:58;;;;;;;43.60;25.50;;;;;;;;;;5052543;28;20605;-67
2023/03/07 00:26:25;;;;;;;48.80;27.50;;;;;;;;;;5052038;28;20674;-67
2023/03/07 00:28:53;;;;;;;49.50;28.60;;;;;;;;;;5052382;28;20604;-68
2023/03/07 00:31:21;;;;;;;48.88;30.45;;;;;;;;;;5051849;28;20217;-68
2023/03/07 00:33:48;;;;;;;48.92;27.20;;;;;;;;;;5052560;28;20224;-67
2023/03/07 00:36:16;;;;;;;46.10;28.48;;;;;;;;;;5052268;28;20266;-67
2023/03/07 00:38:45;;;;;;;49.50;28.95;;;;;;;;;;5052258;28;20254;-67
2023/03/07 00:41:14;;;;;;;52.72;31.13;;;;;;;;;;5052558;28;20285;-67
2023/03/07 00:43:41;;;;;;;46.50;30.63;;;;;;;;;;5052253;28;20200;-67
2023/03/07 00:46:08;;;;;;;46.05;28.98;;;;;;;;;;5052242;28;20283;-67
2023/03/07 00:48:36;;;;;;;49.63;29.58;;;;;;;;;;5052140;28;20195;-67
2023/03/07 00:51:04;;;;;;;47.70;29.95;;;;;;;;;;5051877;28;20570;-67
2023/03/07 00:53:31;;;;;;;46.28;29.95;;;;;;;;;;5052112;28;20199;-67
2023/03/07 00:56:01;;;;;;;50.80;33.33;;;;;;;;;;5054838;28;20193;-67
2023/03/07 00:58:28;;;;;;;41.33;26.42;;;;;;;;;;5055382;28;20204;-67
2023/03/07 01:00:55;;;;;;;47.70;27.85;;;;;;;;;;5055950;28;20201;-67
2023/03/07 01:03:23;;;;;;;43.35;25.85;;;;;;;;;;5055295;28;20606;-67
2023/03/07 01:05:51;;;;;;;41.83;25.40;;;;;;;;;;5055407;28;20191;-67
2023/03/07 01:08:18;;;;;;;30.48;21.75;;;;;;;;;;5055727;28;20192;-66
2023/03/07 01:10:47;;;;;;;32.30;22.10;;;;;;;;;;5055684;28;20223;-66
2023/03/07 01:13:16;;;;;;;27.35;18.33;;;;;;;;;;5054970;28;20707;-66
2023/03/07 01:15:43;;;;;;;31.02;17.77;;;;;;;;;;5055547;28;20194;-66
2023/03/07 01:18:11;;;;;;;29.13;18.20;;;;;;;;;;5055538;28;20192;-66
2023/03/07 01:20:39;;;;;;;18.50;13.50;;;;;;;;;;5055723;28;20196;-66
2023/03/07 01:23:06;;;;;;;22.02;11.18;;;;;;;;;;5055190;28;20334;-67
2023/03/07 01:25:38;;;;;;;15.43;11.60;;;;;;;;;;5056059;28;20223;-68
2023/03/07 01:28:05;;;;;;;12.63;9.30;;;;;;;;;;5055189;28;20689;-66
2023/03/07 01:30:34;;;;;;;15.00;10.80;;;;;;;;;;5055224;28;20228;-67
2023/03/07 01:33:02;;;;;;;15.98;10.27;;;;;;;;;;5054779;28;20190;-67
2023/03/07 01:35:30;;;;;;;11.75;9.05;;;;;;;;;;5054728;28;20284;-67
2023/03/07 01:37:57;;;;;;;12.65;9.52;;;;;;;;;;5054667;28;20197;-67
2023/03/07 01:40:29;;;;;;;14.07;9.45;;;;;;;;;;5055066;28;20531;-67
2023/03/07 01:43:13;;;;;;;11.68;9.55;;;;;;;;;;5054705;28;20258;-67
2023/03/07 01:45:59;;;;;;;13.90;9.02;;;;;;;;;;5055087;28;20180;-67
2023/03/07 01:48:27;;;;;;;10.27;7.55;;;;;;;;;;5054472;28;20216;-67
2023/03/07 01:50:54;;;;;;;13.70;10.13;;;;;;;;;;5054780;28;20213;-67
2023/03/07 01:53:22;;;;;;;13.85;10.05;;;;;;;;;;5054522;28;20236;-67
2023/03/07 01:55:49;;;;;;;14.85;10.63;;;;;;;;;;5054721;28;20194;-67
2023/03/07 01:58:16;;;;;;;10.88;9.00;;;;;;;;;;5054605;28;20204;-67
2023/03/07 02:00:44;;;;;;;12.73;9.10;;;;;;;;;;5054813;28;20205;-67
2023/03/07 02:03:15;;;;;;;13.43;9.02;;;;;;;;;;5054232;28;20197;-67
2023/03/07 02:05:46;;;;;;;11.38;9.40;;;;;;;;;;5053319;28;20200;-67
2023/03/07 02:08:14;;;;;;;11.23;8.23;;;;;;;;;;5054191;28;20190;-68
2023/03/07 02:10:42;;;;;;;16.02;8.05;;;;;;;;;;5054100;28;20222;-67
2023/03/07 02:13:10;;;;;;;13.20;10.05;;;;;;;;;;5054151;28;20203;-68
2023/03/07 02:15:37;;;;;;;11.30;8.95;;;;;;;;;;5053997;28;20666;-67
2023/03/07 02:18:05;;;;;;;10.48;8.60;;;;;;;;;;5053750;28;20200;-68
2023/03/07 02:20:36;;;;;;;11.90;10.13;;;;;;;;;;5053848;28;20196;-68
2023/03/07 02:23:12;;;;;;;12.60;9.30;;;;;;;;;;5053914;28;20207;-68
2023/03/07 02:25:42;;;;;;;10.95;8.27;;;;;;;;;;5054369;28;20186;-68
2023/03/07 02:28:14;;;;;;;11.32;10.10;;;;;;;;;;5053990;28;20190;-68
2023/03/07 02:30:53;;;;;;;12.98;9.30;;;;;;;;;;5053765;28;20613;-67
2023/03/07 02:33:23;;;;;;;12.20;10.73;;;;;;;;;;5053885;28;20192;-67
2023/03/07 02:35:58;;;;;;;13.10;11.65;;;;;;;;;;5054458;28;20214;-67
2023/03/07 02:38:25;;;;;;;12.40;10.32;;;;;;;;;;5054227;28;20261;-67
2023/03/07 02:40:53;;;;;;;10.38;9.00;;;;;;;;;;5053615;28;20198;-67
2023/03/07 02:43:22;;;;;;;12.95;10.38;;;;;;;;;;5053298;28;20204;-67
2023/03/07 02:45:50;;;;;;;13.00;10.02;;;;;;;;;;5053834;28;20196;-67
2023/03/07 02:48:17;;;;;;;15.10;10.70;;;;;;;;;;5053610;28;20667;-67
2023/03/07 02:50:44;;;;;;;18.85;11.75;;;;;;;;;;5053444;28;20199;-67
2023/03/07 02:53:12;;;;;;;12.90;9.90;;;;;;;;;;5053454;28;20199;-67
2023/03/07 02:55:39;;;;;;;14.77;10.73;;;;;;;;;;5053144;28;20189;-67
2023/03/07 02:58:06;;;;;;;13.02;9.43;;;;;;;;;;5053182;28;20196;-67
2023/03/07 03:00:35;;;;;;;12.57;10.95;;;;;;;;;;5052916;28;20609;-67
2023/03/07 03:03:03;;;;;;;15.10;10.65;;;;;;;;;;5053127;28;20256;-67
2023/03/07 03:05:30;;;;;;;11.65;9.30;;;;;;;;;;5053151;28;20196;-67
2023/03/07 03:07:57;;;;;;;13.27;10.75;;;;;;;;;;5053390;28;20198;-67
2023/03/07 03:10:24;;;;;;;12.10;8.68;;;;;;;;;;5052900;28;20198;-67
2023/03/07 03:12:52;;;;;;;14.63;10.38;;;;;;;;;;5053141;28;20225;-67
2023/03/07 03:15:19;;;;;;;11.30;10.10;;;;;;;;;;5053337;28;20189;-67
2023/03/07 03:17:48;;;;;;;11.88;8.95;;;;;;;;;;5052848;28;20197;-66
2023/03/07 03:20:15;;;;;;;15.05;11.05;;;;;;;;;;5052758;28;20195;-67
2023/03/07 03:22:43;;;;;;;11.80;9.98;;;;;;;;;;5053037;28;20204;-67
2023/03/07 03:25:11;;;;;;;12.73;10.73;;;;;;;;;;5052673;28;20233;-66
2023/03/07 03:27:39;;;;;;;15.48;9.80;;;;;;;;;;5052682;28;20288;-66
2023/03/07 03:30:06;;;;;;;14.27;10.40;;;;;;;;;;5053103;28;20200;-66
2023/03/07 03:32:34;;;;;;;12.77;9.55;;;;;;;;;;5052821;28;20216;-66
2023/03/07 03:35:02;;;;;;;16.50;11.45;;;;;;;;;;5052653;28;20200;-67
2023/03/07 03:37:30;;;;;;;16.77;11.73;;;;;;;;;;5052847;28;20281;-67
2023/03/07 03:39:57;;;;;;;10.77;9.10;;;;;;;;;;5052528;28;20297;-66
2023/03/07 03:42:24;;;;;;;16.55;11.77;;;;;;;;;;5052860;28;20540;-66
2023/03/07 03:44:51;;;;;;;18.25;9.80;;;;;;;;;;5053189;28;20190;-66
2023/03/07 03:47:19;;;;;;;13.43;10.52;;;;;;;;;;5052481;28;20193;-67
2023/03/07 03:49:46;;;;;;;19.13;11.60;;;;;;;;;;5052345;28;20668;-67
2023/03/07 03:52:14;;;;;;;12.82;10.00;;;;;;;;;;5052659;28;20586;-67
2023/03/07 03:54:41;;;;;;;17.25;11.98;;;;;;;;;;5052613;28;20198;-66
2023/03/07 03:57:09;;;;;;;15.50;10.68;;;;;;;;;;5052394;28;20229;-67
2023/03/07 03:59:36;;;;;;;16.55;10.77;;;;;;;;;;5052795;28;20230;-66
2023/03/07 04:02:03;;;;;;;15.50;11.00;;;;;;;;;;5052682;28;20562;-67
2023/03/07 04:04:31;;;;;;;13.85;9.98;;;;;;;;;;5052527;28;20284;-67
2023/03/07 04:06:58;;;;;;;22.30;12.55;;;;;;;;;;5052241;28;20319;-66
2023/03/07 04:09:26;;;;;;;15.75;10.43;;;;;;;;;;5052110;28;20284;-67
2023/03/07 04:11:53;;;;;;;14.48;11.00;;;;;;;;;;5052458;28;20562;-66
2023/03/07 04:14:21;;;;;;;15.02;9.82;;;;;;;;;;5052200;28;20212;-67
2023/03/07 04:16:48;;;;;;;13.05;9.82;;;;;;;;;;5052513;28;20204;-66
2023/03/07 04:19:15;;;;;;;11.30;8.82;;;;;;;;;;5052430;28;20203;-66
2023/03/07 04:21:42;;;;;;;17.40;10.48;;;;;;;;;;5052330;28;20257;-66
2023/03/07 04:24:10;;;;;;;7.95;6.05;;;;;;;;;;5052562;28;20304;-66
2023/03/07 04:26:38;;;;;;;5.72;5.13;;;;;;;;;;5052490;28;20250;-66
2023/03/07 04:29:06;;;;;;;8.43;6.22;;;;;;;;;;5052200;28;20192;-67
2023/03/07 04:31:33;;;;;;;7.60;5.30;;;;;;;;;;5053198;28;20287;-68
2023/03/07 04:34:00;;;;;;;10.88;6.45;;;;;;;;;;5055605;28;20183;-67
2023/03/07 04:36:27;;;;;;;7.50;5.75;;;;;;;;;;5055289;28;20194;-68
2023/03/07 04:38:54;;;;;;;6.93;5.78;;;;;;;;;;5055511;28;20194;-68
2023/03/07 04:41:22;;;;;;;6.75;6.05;;;;;;;;;;5055551;28;20199;-69
2023/03/07 04:43:51;;;;;;;9.77;5.05;;;;;;;;;;5055133;28;20652;-68
2023/03/07 04:46:18;;;;;;;7.43;5.43;;;;;;;;;;5055418;28;20197;-68
2023/03/07 04:48:46;;;;;;;5.63;4.00;;;;;;;;;;5055787;28;20197;-68
2023/03/07 04:51:14;;;;;;;5.18;4.25;;;;;;;;;;5055324;28;20206;-69
2023/03/07 04:53:41;;;;;;;4.28;3.83;;;;;;;;;;5055612;28;20561;-68
2023/03/07 04:56:09;;;;;;;4.30;3.72;;;;;;;;;;5055284;28;20565;-68
2023/03/07 04:58:37;;;;;;;5.22;4.07;;;;;;;;;;5055165;28;20537;-68
2023/03/07 05:01:05;;;;;;;7.68;4.68;;;;;;;;;;5055116;28;20200;-68
2023/03/07 05:03:33;;;;;;;5.28;4.65;;;;;;;;;;5055127;28;20584;-68
2023/03/07 05:06:02;;;;;;;5.80;5.20;;;;;;;;;;5054988;28;20221;-68
2023/03/07 05:08:29;;;;;;;6.22;5.15;;;;;;;;;;5055405;28;20182;-68
2023/03/07 05:10:56;;;;;;;6.60;4.97;;;;;;;;;;5054645;28;20197;-68
2023/03/07 05:13:23;;;;;;;10.30;7.00;;;;;;;;;;5055065;28;20241;-68
2023/03/07 05:15:51;;;;;;;7.28;4.97;;;;;;;;;;5055035;28;20193;-68
2023/03/07 05:18:20;;;;;;;7.13;5.50;;;;;;;;;;5054885;28;20205;-69
2023/03/07 05:20:48;;;;;;;9.32;6.80;;;;;;;;;;5055068;28;20300;-69
2023/03/07 05:23:16;;;;;;;9.05;6.00;;;;;;;;;;5055353;28;20200;-68
2023/03/07 05:25:43;;;;;;;7.30;5.22;;;;;;;;;;5055232;28;20310;-69
2023/03/07 05:28:10;;;;;;;8.38;6.38;;;;;;;;;;5055294;28;20191;-69
2023/03/07 05:30:37;;;;;;;7.00;6.00;;;;;;;;;;5054454;28;20195;-69
2023/03/07 05:33:05;;;;;;;11.07;6.60;;;;;;;;;;5054424;28;20223;-68
2023/03/07 05:35:33;;;;;;;10.07;6.55;;;;;;;;;;5054499;28;20231;-70
2023/03/07 05:38:01;;;;;;;7.18;5.78;;;;;;;;;;5054637;28;20216;-68
2023/03/07 05:40:28;;;;;;;10.27;5.90;;;;;;;;;;5054803;28;20204;-72
2023/03/07 05:42:55;;;;;;;7.45;5.30;;;;;;;;;;5054528;28;20208;-74
2023/03/07 05:45:22;;;;;;;8.02;5.10;;;;;;;;;;5055267;28;20198;-67
2023/03/07 05:47:50;;;;;;;11.15;6.63;;;;;;;;;;5054500;28;20214;-68
2023/03/07 05:50:17;;;;;;;5.70;4.93;;;;;;;;;;5054254;28;20197;-69
2023/03/07 05:52:46;;;;;;;8.38;5.72;;;;;;;;;;5054192;28;20219;-68
2023/03/07 05:55:13;;;;;;;6.13;5.35;;;;;;;;;;5054294;28;20200;-68
2023/03/07 05:57:41;;;;;;;7.25;5.38;;;;;;;;;;5053673;28;20197;-68
2023/03/07 06:00:10;;;;;;;7.03;5.90;;;;;;;;;;5053878;28;20656;-68
2023/03/07 06:02:37;;;;;;;7.68;6.10;;;;;;;;;;5053862;28;20197;-68
2023/03/07 06:05:04;;;;;;;10.60;7.35;;;;;;;;;;5054490;28;20219;-68
2023/03/07 06:07:31;;;;;;;8.35;6.18;;;;;;;;;;5053661;28;20226;-68
2023/03/07 06:10:00;;;;;;;8.90;6.50;;;;;;;;;;5054189;28;20293;-68
2023/03/07 06:12:27;;;;;;;7.13;6.05;;;;;;;;;;5053584;28;20256;-68
2023/03/07 06:14:55;;;;;;;9.02;6.90;;;;;;;;;;5054402;28;20211;-68
2023/03/07 06:17:22;;;;;;;8.57;5.93;;;;;;;;;;5054148;28;20655;-67
2023/03/07 06:19:49;;;;;;;8.30;6.28;;;;;;;;;;5053684;28;20215;-68
2023/03/07 06:22:16;;;;;;;9.52;6.63;;;;;;;;;;5053774;28;20200;-68
2023/03/07 06:24:43;;;;;;;7.93;6.63;;;;;;;;;;5053766;28;20296;-67
2023/03/07 06:27:12;;;;;;;8.50;6.22;;;;;;;;;;5053572;28;20195;-67
2023/03/07 06:29:39;;;;;;;9.27;6.10;;;;;;;;;;5053390;28;20204;-67
2023/03/07 06:32:06;;;;;;;8.45;7.20;;;;;;;;;;5052804;28;20634;-67
2023/03/07 06:34:34;;;;;;;6.72;5.72;;;;;;;;;;5053117;28;20201;-67
2023/03/07 06:37:02;;;;;;;7.93;6.10;;;;;;;;;;5053482;28;20189;-66
2023/03/07 06:39:29;;;;;;;7.47;6.22;;;;;;;;;;5053538;28;20545;-67
2023/03/07 06:41:56;;;;;;;8.73;6.15;;;;;;;;;;5053819;28;20195;-67
2023/03/07 06:44:25;;;;;;;7.93;6.30;;;;;;;;;;5053430;28;20196;-67
2023/03/07 06:46:52;;;;;;;7.88;6.22;;;;;;;;;;5053301;28;20205;-66
2023/03/07 06:49:19;;;;;;;9.85;6.20;;;;;;;;;;5053198;28;20205;-66
2023/03/07 06:51:46;;;;;;;7.75;6.13;;;;;;;;;;5052616;28;20203;-67
2023/03/07 06:54:13;;;;;;;7.68;5.85;;;;;;;;;;5052781;28;20658;-67
2023/03/07 06:56:41;;;;;;;9.07;6.50;;;;;;;;;;5052924;28;20219;-67
2023/03/07 06:59:09;;;;;;;11.13;6.15;;;;;;;;;;5053258;28;20291;-67
2023/03/07 07:01:37;;;;;;;8.32;4.90;;;;;;;;;;5053269;28;20203;-66
2023/03/07 07:04:05;;;;;;;8.45;6.90;;;;;;;;;;5053508;28;20287;-66
2023/03/07 07:06:32;;;;;;;8.07;6.00;;;;;;;;;;5052509;28;20694;-67
2023/03/07 07:08:59;;;;;;;5.88;5.22;;;;;;;;;;5053428;28;20194;-66
2023/03/07 07:11:27;;;;;;;10.13;6.30;;;;;;;;;;5052743;28;20272;-67
2023/03/07 07:13:54;;;;;;;8.95;6.47;;;;;;;;;;5052631;28;20221;-66
2023/03/07 07:16:21;;;;;;;9.82;7.30;;;;;;;;;;5052986;28;20196;-66
2023/03/07 07:18:51;;;;;;;9.40;6.40;;;;;;;;;;5052738;28;20204;-67
2023/03/07 07:21:19;;;;;;;7.80;6.05;;;;;;;;;;5053092;28;20540;-66
2023/03/07 07:23:46;;;;;;;8.20;6.18;;;;;;;;;;5052667;28;20208;-66
2023/03/07 07:26:14;;;;;;;9.20;6.03;;;;;;;;;;5052843;28;20244;-67
2023/03/07 07:28:41;;;;;;;7.32;5.97;;;;;;;;;;5052707;28;20196;-66
2023/03/07 07:31:08;;;;;;;12.20;6.45;;;;;;;;;;5053103;28;20192;-66
2023/03/07 07:33:35;;;;;;;7.60;6.43;;;;;;;;;;5051908;28;20215;-66
2023/03/07 07:36:05;;;;;;;9.65;7.20;;;;;;;;;;5052700;28;20193;-67
2023/03/07 07:38:32;;;;;;;5.00;3.72;;;;;;;;;;5052628;28;20201;-65
2023/03/07 07:41:01;;;;;;;4.00;3.20;;;;;;;;;;5052832;28;20190;-65
2023/03/07 07:43:28;;;;;;;4.30;2.90;;;;;;;;;;5052725;28;20193;-65
2023/03/07 07:45:55;;;;;;;4.53;3.00;;;;;;;;;;5052891;28;20204;-65
2023/03/07 07:48:23;;;;;;;3.25;2.17;;;;;;;;;;5051946;28;20672;-65
2023/03/07 07:50:50;;;;;;;3.00;2.58;;;;;;;;;;5052332;28;20643;-65
2023/03/07 07:53:19;;;;;;;3.38;2.15;;;;;;;;;;5052050;28;20243;-65
2023/03/07 07:55:47;;;;;;;2.80;2.35;;;;;;;;;;5052429;28;20192;-65
2023/03/07 07:58:14;;;;;;;2.30;2.10;;;;;;;;;;5052128;28;20220;-65
2023/03/07 08:00:42;;;;;;;3.67;2.42;;;;;;;;;;5052040;28;20189;-65
2023/03/07 08:03:09;;;;;;;4.35;2.08;;;;;;;;;;5052285;28;20209;-65
2023/03/07 08:05:36;;;;;;;2.53;2.17;;;;;;;;;;5055162;28;20285;-65
2023/03/07 08:08:03;;;;;;;3.78;3.25;;;;;;;;;;5056065;28;20643;-66
2023/03/07 08:10:32;;;;;;;2.83;2.53;;;;;;;;;;5056314;28;20284;-65
2023/03/07 08:12:59;;;;;;;2.78;2.58;;;;;;;;;;5055977;28;20223;-67
2023/03/07 08:15:26;;;;;;;4.43;3.03;;;;;;;;;;5056914;28;20192;-66
2023/03/07 08:17:53;;;;;;;5.60;2.80;;;;;;;;;;5056168;28;20200;-67
2023/03/07 08:20:24;;;;;;;4.50;3.17;;;;;;;;;;5056320;28;20191;-66
2023/03/07 08:22:51;;;;;;;3.05;2.47;;;;;;;;;;5056764;28;20234;-66
2023/03/07 08:25:20;;;;;;;6.63;3.30;;;;;;;;;;5056337;28;20201;-66
2023/03/07 08:27:51;;;;;;;3.35;2.42;;;;;;;;;;5055790;28;20201;-66
2023/03/07 08:30:19;;;;;;;4.50;3.45;;;;;;;;;;5055897;28;20192;-66
2023/03/07 08:32:46;;;;;;;5.90;3.15;;;;;;;;;;5055883;28;20187;-66
2023/03/07 08:35:13;;;;;;;3.00;2.80;;;;;;;;;;5056060;28;20197;-66
2023/03/07 08:37:40;;;;;;;5.65;2.78;;;;;;;;;;5055828;28;20202;-66
2023/03/07 08:40:08;;;;;;;6.30;3.13;;;;;;;;;;5055666;28;20189;-67
2023/03/07 08:42:35;;;;;;;2.83;2.50;;;;;;;;;;5056093;28;20204;-67
2023/03/07 08:45:04;;;;;;;6.18;3.55;;;;;;;;;;5056399;28;20193;-67
2023/03/07 08:47:31;;;;;;;8.88;3.00;;;;;;;;;;5055562;28;20261;-66
2023/03/07 08:49:58;;;;;;;13.18;3.03;;;;;;;;;;5055533;28;20206;-66
2023/03/07 08:52:26;;;;;;;11.77;3.35;;;;;;;;;;5055216;28;20280;-66
2023/03/07 08:54:53;;;;;;;3.53;3.00;;;;;;;;;;5055293;28;20700;-67
2023/03/07 08:57:20;;;;;;;3.17;2.80;;;;;;;;;;5054992;28;20194;-66
2023/03/07 08:59:47;;;;;;;3.97;3.17;;;;;;;;;;5055209;28;20200;-66
2023/03/07 09:02:16;;;;;;;3.25;2.95;;;;;;;;;;5055265;28;20203;-66
2023/03/07 09:04:44;;;;;;;8.43;2.90;;;;;;;;;;5056014;28;20197;-66
2023/03/07 09:07:11;;;;;;;7.50;3.63;;;;;;;;;;5054825;28;20662;-66
2023/03/07 09:09:38;;;;;;;3.50;2.90;;;;;;;;;;5055444;28;20263;-66
2023/03/07 09:12:06;;;;;;;6.22;3.53;;;;;;;;;;5055349;28;20570;-66
2023/03/07 09:14:33;;;;;;;9.70;3.10;;;;;;;;;;5054773;28;20227;-66
2023/03/07 09:17:00;;;;;;;4.18;3.35;;;;;;;;;;5054635;28;20193;-67
2023/03/07 09:19:28;;;;;;;6.50;2.42;;;;;;;;;;5055346;28;20189;-66
2023/03/07 09:21:56;;;;;;;3.95;2.70;;;;;;;;;;5055069;28;20193;-66
2023/03/07 09:24:23;;;;;;;6.82;3.20;;;;;;;;;;5055221;28;20203;-66
2023/03/07 09:26:51;;;;;;;3.22;2.70;;;;;;;;;;5054931;28;20193;-66
2023/03/07 09:29:19;;;;;;;8.57;3.08;;;;;;;;;;5054609;28;20224;-67
2023/03/07 09:31:46;;;;;;;4.13;3.05;;;;;;;;;;5054850;28;20280;-67
2023/03/07 09:34:13;;;;;;;2.53;2.33;;;;;;;;;;5054592;28;20224;-66
2023/03/07 09:36:41;;;;;;;4.50;2.80;;;;;;;;;;5054426;28;20199;-67
2023/03/07 09:39:13;;;;;;;2.83;2.40;;;;;;;;;;5054861;28;20192;-67
2023/03/07 09:41:54;;;;;;;5.85;2.83;;;;;;;;;;5055058;28;20218;-66
2023/03/07 09:44:27;;;;;;;4.00;3.60;;;;;;;;;;5054425;28;20243;-67
2023/03/07 09:47:03;;;;;;;4.30;3.30;;;;;;;;;;5054607;28;20185;-67
2023/03/07 09:49:32;;;;;;;5.45;2.78;;;;;;;;;;5054397;28;20219;-66
2023/03/07 09:52:01;;;;;;;5.45;3.08;;;;;;;;;;5054370;28;20198;-67
2023/03/07 09:54:33;;;;;;;2.75;2.55;;;;;;;;;;5054055;28;20222;-66
2023/03/07 09:57:01;;;;;;;3.92;3.05;;;;;;;;;;5054924;28;20185;-66
2023/03/07 09:59:32;;;;;;;5.20;2.25;;;;;;;;;;5054349;28;20255;-67
2023/03/07 10:02:04;;;;;;;6.30;2.55;;;;;;;;;;5053971;28;20200;-67
2023/03/07 10:04:35;;;;;;;3.78;3.40;;;;;;;;;;5054698;28;20190;-67
2023/03/07 10:07:05;;;;;;;3.60;3.30;;;;;;;;;;5054496;28;20235;-66
2023/03/07 10:09:32;;;;;;;8.32;2.45;;;;;;;;;;5054878;28;20191;-67
2023/03/07 10:12:10;;;;;;;6.35;2.45;;;;;;;;;;5054720;28;20199;-67
2023/03/07 10:14:43;;;;;;;3.40;2.28;;;;;;;;;;5054461;28;20216;-67
2023/03/07 10:17:17;;;;;;;5.32;2.72;;;;;;;;;;5055098;28;20192;-67
2023/03/07 10:19:47;;;;;;;3.35;2.47;;;;;;;;;;5054844;28;20185;-67
2023/03/07 10:22:19;;;;;;;4.82;2.80;;;;;;;;;;5054311;28;20200;-66
2023/03/07 10:25:05;;;;;;;2.53;2.33;;;;;;;;;;5053961;28;20189;-66
2023/03/07 10:27:32;;;;;;;2.80;2.55;;;;;;;;;;5053936;28;20204;-66
2023/03/07 10:30:01;;;;;;;3.10;2.83;;;;;;;;;;5053827;28;20197;-66
2023/03/07 10:32:33;;;;;;;7.57;2.55;;;;;;;;;;5053855;28;20661;-66
2023/03/07 10:35:01;;;;;;;4.15;2.35;;;;;;;;;;5054428;28;20207;-66
2023/03/07 10:37:36;;;;;;;2.50;2.30;;;;;;;;;;5053851;28;20705;-66
2023/03/07 10:40:04;;;;;;;2.90;2.25;;;;;;;;;;5054118;28;20180;-66
2023/03/07 10:42:34;;;;;;;3.90;2.92;;;;;;;;;;5054053;28;20196;-66
2023/03/07 10:45:02;;;;;;;5.93;2.20;;;;;;;;;;5054592;28;20593;-66
2023/03/07 10:47:29;;;;;;;4.07;2.10;;;;;;;;;;5050747;28;20285;-65
2023/03/07 10:50:00;;;;;;;3.80;2.47;;;;;;;;;;5053253;28;20217;-66
2023/03/07 10:52:31;;;;;;;3.15;2.47;;;;;;;;;;5053363;28;20530;-66
2023/03/07 10:55:13;;;;;;;6.80;3.45;;;;;;;;;;5053102;28;20266;-66
2023/03/07 10:57:41;;;;;;;6.72;4.22;;;;;;;;;;5052513;28;20293;-66
2023/03/07 11:00:15;;;;;;;6.22;4.65;;;;;;;;;;5053506;28;20198;-66
2023/03/07 11:02:43;;;;;;;4.63;2.90;;;;;;;;;;5053445;28;20547;-66
2023/03/07 11:05:21;;;;;;;3.45;2.97;;;;;;;;;;5053346;28;20195;-67
2023/03/07 11:07:48;;;;;;;2.92;2.72;;;;;;;;;;5052351;28;20218;-66
2023/03/07 11:10:25;;;;;;;3.08;2.75;;;;;;;;;;5052657;28;20225;-66
2023/03/07 11:12:56;;;;;;;5.20;3.17;;;;;;;;;;5052720;28;20175;-66
2023/03/07 11:15:26;;;;;;;7.95;6.05;;;;;;;;;;5053308;28;20217;-66
2023/03/07 11:17:54;;;;;;;7.47;5.60;;;;;;;;;;5053066;28;20193;-66
2023/03/07 11:20:22;;;;;;;5.28;4.78;;;;;;;;;;5052847;28;20194;-68
2023/03/07 11:22:49;;;;;;;5.60;4.80;;;;;;;;;;5052847;28;20199;-65
2023/03/07 11:25:17;;;;;;;5.70;5.10;;;;;;;;;;5053088;28;20202;-66
2023/03/07 11:27:48;;;;;;;5.85;5.25;;;;;;;;;;5051820;28;20254;-67
2023/03/07 11:30:22;;;;;;;5.47;4.90;;;;;;;;;;5052638;28;20206;-66
2023/03/07 11:32:57;;;;;;;11.65;6.05;;;;;;;;;;5052629;28;20178;-66
2023/03/07 11:35:28;;;;;;;7.95;4.80;;;;;;;;;;5052513;28;20379;-66
2023/03/07 11:38:02;;;;;;;5.95;5.10;;;;;;;;;;5052381;28;20182;-66
2023/03/07 11:40:32;;;;;;;8.25;5.30;;;;;;;;;;5052890;28;20333;-66
2023/03/07 11:43:06;;;;;;;6.20;5.57;;;;;;;;;;5053337;28;20192;-66
2023/03/07 11:45:37;;;;;;;7.30;4.40;;;;;;;;;;5053298;28;20300;-68
2023/03/07 11:48:13;;;;;;;3.30;3.05;;;;;;;;;;5051579;28;20196;-67
2023/03/07 11:50:42;;;;;;;4.70;4.25;;;;;;;;;;5052463;28;20186;-67
2023/03/07 11:53:24;;;;;;;4.18;3.35;;;;;;;;;;5052207;28;20197;-67
2023/03/07 11:55:58;;;;;;;3.90;3.60;;;;;;;;;;5052911;28;20206;-67
2023/03/07 11:58:40;;;;;;;9.77;3.50;;;;;;;;;;5052855;28;20207;-67
2023/03/07 12:01:12;;;;;;;4.00;3.60;;;;;;;;;;5053011;28;20182;-67
2023/03/07 12:04:01;;;;;;;4.90;3.15;;;;;;;;;;5053064;28;20248;-66
2023/03/07 12:06:35;;;;;;;3.35;2.60;;;;;;;;;;5052668;28;20226;-66
2023/03/07 12:09:17;;;;;;;3.42;3.13;;;;;;;;;;5052416;28;20186;-66
2023/03/07 12:11:54;;;;;;;5.15;3.15;;;;;;;;;;5052347;28;20182;-66
2023/03/07 12:14:24;;;;;;;3.95;2.83;;;;;;;;;;5053098;28;20221;-66
2023/03/07 12:17:01;;;;;;;4.22;3.33;;;;;;;;;;5052595;28;20193;-67
2023/03/07 12:19:53;;;;;;;3.65;3.00;;;;;;;;;;5053081;28;20188;-65
2023/03/07 12:22:27;;;;;;;3.38;3.08;;;;;;;;;;5052669;28;20186;-67
2023/03/07 12:25:02;;;;;;;6.32;3.40;;;;;;;;;;5052373;28;20206;-66
2023/03/07 12:27:32;;;;;;;5.03;3.08;;;;;;;;;;5049545;28;20275;-67
2023/03/07 12:30:02;;;;;;;4.45;2.45;;;;;;;;;;5052163;28;20199;-66
2023/03/07 12:32:33;;;;;;;5.72;3.35;;;;;;;;;;5052012;28;20189;-67
2023/03/07 12:35:04;;;;;;;3.58;2.33;;;;;;;;;;5051993;28;20680;-66
2023/03/07 12:37:33;;;;;;;5.90;2.80;;;;;;;;;;5052320;28;20212;-66
2023/03/07 12:40:02;;;;;;;6.80;2.78;;;;;;;;;;5052064;28;20194;-66
2023/03/07 12:42:33;;;;;;;2.67;2.47;;;;;;;;;;5051865;28;20205;-66
2023/03/07 12:45:05;;;;;;;4.13;2.75;;;;;;;;;;5051927;28;20701;-66
2023/03/07 12:47:36;;;;;;;5.90;2.80;;;;;;;;;;5051328;28;20264;-66
2023/03/07 12:50:06;;;;;;;3.20;2.80;;;;;;;;;;5052029;28;20179;-67
2023/03/07 12:52:40;;;;;;;5.18;2.10;;;;;;;;;;5055606;28;20200;-67
2023/03/07 12:55:14;;;;;;;4.50;3.00;;;;;;;;;;5055603;28;20213;-66
2023/03/07 12:57:43;;;;;;;2.88;2.38;;;;;;;;;;5055876;28;20241;-66
2023/03/07 13:00:12;;;;;;;3.30;3.00;;;;;;;;;;5055489;28;20218;-67
2023/03/07 13:02:44;;;;;;;6.38;3.08;;;;;;;;;;5055436;28;20198;-67
2023/03/07 13:05:17;;;;;;;4.10;3.55;;;;;;;;;;5055866;28;20198;-66
2023/03/07 13:07:45;;;;;;;5.25;2.92;;;;;;;;;;5054730;28;20225;-66
2023/03/07 13:10:15;;;;;;;4.75;3.08;;;;;;;;;;5055285;28;20206;-67
2023/03/07 13:12:43;;;;;;;4.63;3.45;;;;;;;;;;5055492;28;20247;-67
2023/03/07 13:15:31;;;;;;;9.25;4.03;;;;;;;;;;5055505;28;20216;-66
2023/03/07 13:18:00;;;;;;;3.70;3.30;;;;;;;;;;5054962;28;20735;-66
2023/03/07 13:20:39;;;;;;;6.20;3.72;;;;;;;;;;5055380;28;20280;-66
2023/03/07 13:23:13;;;;;;;4.63;3.80;;;;;;;;;;5055072;28;20192;-66
2023/03/07 13:25:51;;;;;;;4.93;3.00;;;;;;;;;;5055058;28;20227;-67
2023/03/07 13:28:50;;;;;;;3.55;3.25;;;;;;;;;;5054409;28;20263;-67
2023/03/07 13:31:35;;;;;;;3.13;2.50;;;;;;;;;;5054879;28;20228;-66
2023/03/07 13:34:20;;;;;;;3.83;3.17;;;;;;;;;;5054442;28;20269;-66
2023/03/07 13:36:49;;;;;;;4.30;3.10;;;;;;;;;;5055044;28;20197;-66
2023/03/07 13:39:31;;;;;;;3.92;2.92;;;;;;;;;;5054630;28;20202;-66
2023/03/07 13:41:58;;;;;;;3.05;2.85;;;;;;;;;;5051648;28;20193;-66
2023/03/07 13:44:30;;;;;;;2.95;2.65;;;;;;;;;;5054507;28;20223;-67
2023/03/07 13:47:03;;;;;;;4.15;2.90;;;;;;;;;;5054781;28;20203;-67
2023/03/07 13:49:34;;;;;;;4.95;3.20;;;;;;;;;;5054011;28;20275;-67
2023/03/07 13:52:25;;;;;;;3.60;3.30;;;;;;;;;;5054708;28;20202;-66
2023/03/07 13:54:53;;;;;;;3.60;3.30;;;;;;;;;;5054615;28;20212;-66
2023/03/07 13:57:22;;;;;;;11.70;3.50;;;;;;;;;;5054493;28;20207;-67
2023/03/07 13:59:50;;;;;;;3.90;2.90;;;;;;;;;;5054288;28;20193;-66
2023/03/07 14:02:17;;;;;;;5.82;2.65;;;;;;;;;;5054531;28;20189;-66
2023/03/07 14:04:48;;;;;;;4.35;2.78;;;;;;;;;;5054227;28;20656;-66
2023/03/07 14:07:20;;;;;;;4.03;3.15;;;;;;;;;;5053911;28;20618;-69
2023/03/07 14:09:50;;;;;;;3.72;3.03;;;;;;;;;;5053833;28;20219;-66
2023/03/07 14:12:23;;;;;;;4.63;3.35;;;;;;;;;;5054594;28;20193;-66
2023/03/07 14:14:56;;;;;;;4.68;3.90;;;;;;;;;;5053795;28;20360;-66
2023/03/07 14:17:41;;;;;;;4.78;3.05;;;;;;;;;;5054430;28;20561;-66
2023/03/07 14:20:16;;;;;;;4.65;3.03;;;;;;;;;;5053498;28;20190;-67
2023/03/07 14:22:50;;;;;;;4.50;4.10;;;;;;;;;;5054234;28;20195;-66
2023/03/07 14:25:21;;;;;;;5.03;3.53;;;;;;;;;;5054337;28;20275;-66
2023/03/07 14:27:53;;;;;;;3.30;3.00;;;;;;;;;;5053525;28;20187;-66
2023/03/07 14:30:21;;;;;;;3.40;3.10;;;;;;;;;;5053537;28;20269;-66
2023/03/07 14:32:48;;;;;;;7.32;3.30;;;;;;;;;;5053434;28;20650;-66
2023/03/07 14:35:15;;;;;;;4.75;3.50;;;;;;;;;;5053929;28;20224;-79
2023/03/07 14:37:43;;;;;;;6.00;4.32;;;;;;;;;;5055004;28;20200;-65
2023/03/07 14:40:19;;;;;;;4.80;3.83;;;;;;;;;;5054332;28;20196;-66
2023/03/07 14:42:52;;;;;;;7.03;4.30;;;;;;;;;;5054041;28;20187;-65
2023/03/07 14:45:23;;;;;;;4.85;3.90;;;;;;;;;;5053889;28;20239;-72
2023/03/07 14:47:56;;;;;;;6.25;2.50;;;;;;;;;;5052963;28;20180;-66
2023/03/07 14:50:26;;;;;;;3.70;1.60;;;;;;;;;;5053237;28;20240;-67